createdAt,value
2022-10-17T00:00:43.386Z,13.40
2022-10-17T00:01:43.400Z,13.33
2022-10-17T00:02:43.370Z,13.37
2022-10-17T00:03:43.345Z,13.30
2022-10-17T00:04:43.341Z,13.27
2022-10-17T00:05:43.346Z,13.21
2022-10-17T00:06:43.354Z,13.17
2022-10-17T00:07:43.359Z,13.07
2022-10-17T00:08:43.311Z,13.07
2022-10-17T00:09:43.309Z,13.12
2022-10-17T00:10:43.290Z,13.11
2022-10-17T00:11:43.288Z,13.04
2022-10-17T00:12:43.378Z,13.03
2022-10-17T00:13:43.294Z,13.00
2022-10-17T00:14:43.259Z,12.97
2022-10-17T00:15:43.258Z,13.07
2022-10-17T00:16:43.258Z,13.04
2022-10-17T00:17:43.238Z,13.11
2022-10-17T00:18:43.249Z,13.11
2022-10-17T00:19:43.234Z,13.15
2022-10-17T00:20:43.217Z,13.12
2022-10-17T00:21:43.221Z,13.17
2022-10-17T00:22:43.218Z,13.20
2022-10-17T00:23:43.222Z,13.17
2022-10-17T00:24:43.219Z,13.25
2022-10-17T00:25:43.229Z,13.33
2022-10-17T00:26:43.187Z,13.38
2022-10-17T00:27:43.186Z,13.32
2022-10-17T00:28:43.237Z,13.37
2022-10-17T00:29:43.194Z,13.47
2022-10-17T00:30:43.206Z,13.33
2022-10-17T00:31:43.238Z,13.32
2022-10-17T00:32:43.192Z,13.46
2022-10-17T00:33:43.185Z,13.43
2022-10-17T00:34:43.158Z,13.32
2022-10-17T00:35:43.131Z,13.33
2022-10-17T00:36:43.122Z,13.27
2022-10-17T00:37:43.129Z,13.32
2022-10-17T00:38:43.117Z,13.29
2022-10-17T00:39:44.117Z,13.32
2022-10-17T00:40:43.135Z,13.40
2022-10-17T00:41:43.103Z,13.40
2022-10-17T00:42:43.111Z,13.43
2022-10-17T00:43:43.107Z,13.43
2022-10-17T00:44:43.089Z,13.46
2022-10-17T00:45:43.085Z,13.56
2022-10-17T00:46:43.066Z,13.56
2022-10-17T00:47:44.062Z,13.59
2022-10-17T00:48:43.057Z,13.54
2022-10-17T00:49:43.062Z,13.63
2022-10-17T00:50:43.042Z,13.55
2022-10-17T00:51:43.048Z,13.59
2022-10-17T00:52:43.039Z,13.79
2022-10-17T00:53:43.030Z,13.61
2022-10-17T00:54:43.024Z,13.71
2022-10-17T00:55:43.009Z,13.76
2022-10-17T00:56:43.019Z,13.59
2022-10-17T00:57:43.003Z,13.65
2022-10-17T00:58:42.996Z,13.62
2022-10-17T00:59:42.986Z,13.55
2022-10-17T01:00:42.983Z,13.54
2022-10-17T01:01:43.104Z,13.58
2022-10-17T01:02:42.982Z,13.54
2022-10-17T01:03:42.958Z,13.59
2022-10-17T01:04:42.949Z,13.55
2022-10-17T01:05:42.961Z,13.56
2022-10-17T01:06:42.951Z,13.55
2022-10-17T01:07:42.938Z,13.61
2022-10-17T01:08:42.939Z,13.61
2022-10-17T01:09:42.947Z,13.69
2022-10-17T01:10:42.923Z,13.55
2022-10-17T01:11:42.934Z,13.56
2022-10-17T01:12:43.002Z,13.47
2022-10-17T01:13:42.907Z,13.38
2022-10-17T01:14:42.921Z,13.40
2022-10-17T01:15:42.885Z,13.37
2022-10-17T01:16:42.898Z,13.43
2022-10-17T01:17:42.879Z,13.27
2022-10-17T01:18:42.862Z,13.18
2022-10-17T01:19:42.865Z,13.15
2022-10-17T01:20:42.862Z,13.14
2022-10-17T01:21:42.850Z,13.09
2022-10-17T01:22:42.845Z,13.06
2022-10-17T01:23:42.833Z,13.06
2022-10-17T01:24:42.837Z,13.00
2022-10-17T01:25:42.825Z,12.97
2022-10-17T01:26:42.817Z,12.95
2022-10-17T01:27:42.818Z,12.97
2022-10-17T01:29:42.794Z,12.95
2022-10-17T01:30:42.790Z,12.82
2022-10-17T01:31:42.788Z,12.75
2022-10-17T01:32:42.797Z,12.81
2022-10-17T01:33:42.774Z,12.87
2022-10-17T01:34:42.770Z,12.84
2022-10-17T01:35:42.763Z,12.79
2022-10-17T01:36:42.753Z,12.87
2022-10-17T01:37:42.807Z,12.81
2022-10-17T01:38:42.734Z,12.89
2022-10-17T01:39:45.363Z,12.87
2022-10-17T01:40:43.740Z,12.97
2022-10-17T01:41:42.725Z,12.96
2022-10-17T01:42:42.718Z,12.93
2022-10-17T01:43:42.717Z,12.88
2022-10-17T01:44:42.716Z,12.93
2022-10-17T01:45:42.713Z,12.99
2022-10-17T01:46:42.693Z,12.97
2022-10-17T01:47:42.679Z,12.97
2022-10-17T01:48:43.682Z,13.03
2022-10-17T01:49:42.715Z,13.02
2022-10-17T01:50:42.704Z,12.93
2022-10-17T01:51:42.696Z,12.99
2022-10-17T01:52:42.653Z,12.93
2022-10-17T01:53:42.657Z,13.04
2022-10-17T01:54:42.640Z,12.93
2022-10-17T01:55:42.657Z,12.96
2022-10-17T01:56:42.625Z,12.96
2022-10-17T01:57:42.624Z,12.93
2022-10-17T01:58:42.616Z,12.87
2022-10-17T01:59:42.611Z,12.85
2022-10-17T02:00:42.605Z,12.81
2022-10-17T02:01:42.645Z,12.85
2022-10-17T02:02:42.575Z,12.79
2022-10-17T02:03:42.585Z,12.82
2022-10-17T02:04:42.599Z,12.75
2022-10-17T02:05:42.682Z,12.82
2022-10-17T02:06:42.565Z,12.85
2022-10-17T02:07:42.572Z,12.78
2022-10-17T02:08:42.543Z,12.82
2022-10-17T02:09:42.540Z,12.87
2022-10-17T02:10:42.558Z,12.74
2022-10-17T02:11:42.521Z,12.78
2022-10-17T02:12:42.516Z,12.79
2022-10-17T02:13:42.517Z,12.85
2022-10-17T02:14:42.498Z,12.85
2022-10-17T02:15:42.516Z,12.84
2022-10-17T02:16:42.494Z,12.79
2022-10-17T02:17:42.490Z,12.85
2022-10-17T02:18:42.477Z,12.78
2022-10-17T02:19:42.473Z,12.78
2022-10-17T02:20:42.465Z,12.74
2022-10-17T02:21:42.481Z,12.77
2022-10-17T02:22:42.464Z,12.79
2022-10-17T02:23:42.449Z,12.70
2022-10-17T02:24:42.445Z,12.59
2022-10-17T02:25:42.442Z,12.57
2022-10-17T02:26:42.441Z,12.48
2022-10-17T02:27:42.440Z,12.51
2022-10-17T02:28:42.452Z,12.49
2022-10-17T02:29:42.417Z,12.39
2022-10-17T02:30:42.411Z,12.45
2022-10-17T02:31:42.421Z,12.44
2022-10-17T02:32:45.417Z,12.34
2022-10-17T02:33:43.384Z,12.27
2022-10-17T02:34:42.381Z,12.33
2022-10-17T02:35:42.375Z,12.34
2022-10-17T02:36:42.377Z,12.21
2022-10-17T02:37:42.365Z,12.15
2022-10-17T02:38:42.349Z,12.31
2022-10-17T02:39:42.349Z,12.30
2022-10-17T02:40:42.349Z,12.19
2022-10-17T02:41:42.358Z,12.15
2022-10-17T02:42:42.340Z,12.23
2022-10-17T02:43:42.329Z,12.16
2022-10-17T02:44:42.334Z,12.15
2022-10-17T02:45:42.325Z,12.26
2022-10-17T02:46:42.328Z,12.11
2022-10-17T02:47:42.289Z,12.21
2022-10-17T02:48:42.291Z,12.23
2022-10-17T02:49:42.301Z,12.16
2022-10-17T02:50:42.277Z,12.13
2022-10-17T02:51:42.304Z,12.13
2022-10-17T02:52:42.279Z,12.19
2022-10-17T02:53:42.264Z,12.20
2022-10-17T02:54:42.265Z,12.12
2022-10-17T02:55:42.260Z,12.15
2022-10-17T02:56:42.264Z,12.23
2022-10-17T02:57:42.266Z,12.20
2022-10-17T02:58:42.244Z,12.20
2022-10-17T02:59:42.221Z,12.24
2022-10-17T03:00:42.224Z,12.27
2022-10-17T03:01:42.345Z,12.31
2022-10-17T03:02:42.237Z,12.26
2022-10-17T03:03:42.210Z,12.29
2022-10-17T03:04:42.205Z,12.30
2022-10-17T03:05:42.204Z,12.33
2022-10-17T03:06:42.193Z,12.24
2022-10-17T03:07:42.188Z,12.24
2022-10-17T03:08:42.198Z,12.29
2022-10-17T03:09:42.180Z,12.20
2022-10-17T03:10:42.180Z,12.33
2022-10-17T03:11:42.155Z,12.19
2022-10-17T03:12:42.177Z,12.15
2022-10-17T03:13:42.148Z,12.20
2022-10-17T03:14:42.176Z,12.06
2022-10-17T03:15:42.133Z,12.08
2022-10-17T03:16:42.124Z,12.16
2022-10-17T03:17:42.167Z,12.26
2022-10-17T03:18:44.377Z,12.12
2022-10-17T03:19:42.113Z,12.13
2022-10-17T03:20:42.104Z,12.04
2022-10-17T03:21:42.096Z,12.08
2022-10-17T03:22:42.092Z,12.09
2022-10-17T03:23:42.080Z,11.94
2022-10-17T03:24:42.108Z,11.96
2022-10-17T03:25:42.065Z,12.01
2022-10-17T03:26:42.160Z,11.90
2022-10-17T03:27:42.063Z,11.87
2022-10-17T03:28:42.101Z,11.94
2022-10-17T03:29:42.054Z,11.86
2022-10-17T03:30:42.036Z,11.97
2022-10-17T03:31:42.028Z,11.96
2022-10-17T03:32:42.029Z,11.86
2022-10-17T03:33:42.022Z,11.78
2022-10-17T03:34:42.008Z,11.97
2022-10-17T03:35:42.039Z,11.93
2022-10-17T03:36:42.016Z,11.97
2022-10-17T03:37:41.995Z,11.96
2022-10-17T03:38:41.976Z,12.02
2022-10-17T03:39:41.984Z,12.01
2022-10-17T03:40:41.976Z,12.02
2022-10-17T03:41:41.982Z,11.93
2022-10-17T03:42:41.960Z,11.97
2022-10-17T03:43:41.952Z,11.99
2022-10-17T03:44:41.945Z,11.96
2022-10-17T03:45:41.947Z,12.01
2022-10-17T03:46:41.972Z,11.97
2022-10-17T03:47:41.932Z,11.89
2022-10-17T03:48:41.928Z,11.89
2022-10-17T03:49:41.932Z,11.97
2022-10-17T03:50:41.922Z,11.86
2022-10-17T03:51:41.925Z,11.82
2022-10-17T03:52:41.907Z,11.86
2022-10-17T03:53:41.892Z,11.87
2022-10-17T03:54:41.904Z,11.86
2022-10-17T03:55:41.876Z,11.90
2022-10-17T03:56:41.879Z,11.85
2022-10-17T03:57:43.455Z,11.72
2022-10-17T03:58:41.873Z,11.89
2022-10-17T03:59:41.869Z,11.82
2022-10-17T04:00:41.856Z,11.82
2022-10-17T04:01:41.942Z,11.74
2022-10-17T04:02:41.840Z,11.72
2022-10-17T04:03:41.823Z,11.83
2022-10-17T04:04:41.836Z,11.75
2022-10-17T04:05:41.812Z,11.80
2022-10-17T04:06:41.816Z,11.74
2022-10-17T04:07:41.806Z,11.78
2022-10-17T04:08:41.800Z,11.75
2022-10-17T04:09:41.805Z,11.77
2022-10-17T04:10:41.786Z,11.68
2022-10-17T04:11:41.783Z,11.74
2022-10-17T04:12:41.774Z,11.67
2022-10-17T04:13:41.768Z,11.68
2022-10-17T04:14:41.778Z,11.67
2022-10-17T04:15:41.756Z,11.67
2022-10-17T04:16:41.756Z,11.57
2022-10-17T04:17:41.735Z,11.61
2022-10-17T04:18:41.739Z,11.65
2022-10-17T04:19:41.733Z,11.71
2022-10-17T04:20:41.729Z,11.62
2022-10-17T04:21:41.743Z,11.65
2022-10-17T04:22:41.712Z,11.64
2022-10-17T04:23:41.701Z,11.59
2022-10-17T04:24:41.696Z,11.71
2022-10-17T04:25:41.684Z,11.57
2022-10-17T04:26:41.772Z,11.61
2022-10-17T04:27:41.675Z,11.67
2022-10-17T04:28:41.678Z,11.67
2022-10-17T04:29:41.666Z,11.72
2022-10-17T04:30:45.076Z,11.71
2022-10-17T04:31:41.651Z,11.64
2022-10-17T04:32:41.648Z,11.72
2022-10-17T04:33:41.637Z,11.72
2022-10-17T04:34:41.631Z,11.77
2022-10-17T04:35:41.620Z,11.70
2022-10-17T04:36:41.615Z,11.72
2022-10-17T04:37:41.616Z,11.72
2022-10-17T04:38:42.603Z,11.77
2022-10-17T04:39:41.600Z,11.87
2022-10-17T04:40:41.608Z,11.78
2022-10-17T04:41:41.611Z,11.74
2022-10-17T04:42:41.575Z,11.80
2022-10-17T04:43:43.432Z,11.74
2022-10-17T04:44:41.564Z,11.80
2022-10-17T04:45:41.565Z,11.83
2022-10-17T04:46:41.559Z,11.77
2022-10-17T04:47:41.547Z,11.82
2022-10-17T04:48:41.539Z,11.77
2022-10-17T04:50:42.519Z,11.83
2022-10-17T04:51:41.519Z,11.75
2022-10-17T04:52:41.532Z,11.75
2022-10-17T04:53:41.507Z,11.85
2022-10-17T04:54:41.500Z,11.74
2022-10-17T04:55:41.500Z,11.67
2022-10-17T04:56:41.492Z,11.72
2022-10-17T04:57:41.497Z,11.61
2022-10-17T04:58:41.479Z,11.62
2022-10-17T04:59:41.480Z,11.67
2022-10-17T05:00:41.495Z,11.65
2022-10-17T05:01:41.470Z,11.68
2022-10-17T05:02:41.468Z,11.65
2022-10-17T05:03:41.466Z,11.67
2022-10-17T05:04:41.439Z,11.61
2022-10-17T05:05:41.451Z,11.70
2022-10-17T05:06:41.431Z,11.74
2022-10-17T05:07:41.428Z,11.67
2022-10-17T05:08:41.424Z,11.59
2022-10-17T05:09:41.416Z,11.49
2022-10-17T05:10:41.407Z,11.61
2022-10-17T05:11:41.397Z,11.47
2022-10-17T05:12:41.397Z,11.61
2022-10-17T05:13:41.404Z,11.64
2022-10-17T05:14:41.375Z,11.64
2022-10-17T05:15:41.371Z,11.70
2022-10-17T05:16:41.368Z,11.68
2022-10-17T05:17:41.367Z,11.61
2022-10-17T05:18:41.355Z,11.77
2022-10-17T05:19:41.355Z,11.70
2022-10-17T05:20:41.339Z,11.68
2022-10-17T05:21:41.331Z,11.78
2022-10-17T05:22:42.203Z,11.74
2022-10-17T05:23:41.327Z,11.71
2022-10-17T05:24:41.364Z,11.71
2022-10-17T05:25:41.304Z,11.64
2022-10-17T05:26:41.298Z,11.71
2022-10-17T05:27:41.302Z,11.68
2022-10-17T05:28:41.334Z,11.77
2022-10-17T05:29:41.305Z,11.62
2022-10-17T05:30:41.264Z,11.62
2022-10-17T05:31:41.272Z,11.52
2022-10-17T05:32:41.268Z,11.57
2022-10-17T05:33:41.253Z,11.44
2022-10-17T05:34:41.271Z,11.59
2022-10-17T05:35:41.260Z,11.47
2022-10-17T05:36:41.234Z,11.52
2022-10-17T05:37:41.240Z,11.50
2022-10-17T05:38:41.224Z,11.44
2022-10-17T05:39:41.218Z,11.44
2022-10-17T05:40:41.217Z,11.46
2022-10-17T05:41:41.202Z,11.44
2022-10-17T05:42:41.203Z,11.49
2022-10-17T05:43:41.202Z,11.47
2022-10-17T05:44:41.180Z,11.38
2022-10-17T05:45:41.190Z,11.47
2022-10-17T05:46:41.169Z,11.47
2022-10-17T05:47:41.163Z,11.53
2022-10-17T05:48:41.176Z,11.50
2022-10-17T05:49:47.343Z,11.43
2022-10-17T05:50:42.144Z,11.49
2022-10-17T05:51:41.140Z,11.47
2022-10-17T05:52:42.913Z,11.44
2022-10-17T05:53:41.131Z,11.56
2022-10-17T05:54:41.126Z,11.50
2022-10-17T05:55:41.122Z,11.47
2022-10-17T05:56:41.103Z,11.56
2022-10-17T05:57:41.099Z,11.47
2022-10-17T05:59:00.789Z,11.57
2022-10-17T05:59:43.103Z,11.59
2022-10-17T06:00:41.159Z,11.53
2022-10-17T06:01:41.093Z,11.49
2022-10-17T06:02:41.067Z,11.52
2022-10-17T06:03:41.060Z,11.64
2022-10-17T06:04:41.063Z,11.70
2022-10-17T06:05:41.072Z,11.56
2022-10-17T06:06:41.044Z,11.75
2022-10-17T06:07:41.104Z,11.71
2022-10-17T06:08:41.033Z,11.70
2022-10-17T06:09:41.053Z,11.85
2022-10-17T06:10:41.033Z,11.74
2022-10-17T06:11:41.014Z,11.83
2022-10-17T06:12:41.000Z,11.86
2022-10-17T06:13:40.995Z,11.89
2022-10-17T06:14:40.987Z,11.93
2022-10-17T06:15:41.004Z,12.04
2022-10-17T06:16:40.976Z,11.99
2022-10-17T06:17:40.983Z,12.12
2022-10-17T06:18:41.030Z,12.13
2022-10-17T06:19:41.007Z,12.13
2022-10-17T06:20:45.255Z,12.09
2022-10-17T06:21:42.942Z,12.19
2022-10-17T06:22:40.935Z,12.20
2022-10-17T06:23:40.932Z,12.20
2022-10-17T06:24:40.927Z,12.27
2022-10-17T06:25:40.956Z,12.24
2022-10-17T06:26:40.915Z,12.44
2022-10-17T06:27:40.946Z,12.39
2022-10-17T06:28:40.935Z,12.41
2022-10-17T06:29:40.901Z,12.44
2022-10-17T06:30:40.907Z,12.42
2022-10-17T06:31:40.883Z,12.51
2022-10-17T06:32:40.874Z,12.52
2022-10-17T06:33:40.866Z,12.60
2022-10-17T06:34:40.871Z,12.74
2022-10-17T06:35:40.853Z,12.75
2022-10-17T06:36:40.877Z,12.71
2022-10-17T06:37:41.039Z,12.93
2022-10-17T06:38:40.834Z,12.92
2022-10-17T06:39:40.828Z,13.03
2022-10-17T06:40:40.829Z,13.07
2022-10-17T06:41:40.843Z,13.14
2022-10-17T06:42:40.819Z,13.22
2022-10-17T06:43:40.803Z,13.29
2022-10-17T06:44:40.826Z,13.24
2022-10-17T06:45:40.795Z,13.36
2022-10-17T06:46:40.791Z,13.54
2022-10-17T06:47:40.803Z,13.69
2022-10-17T06:48:40.768Z,13.54
2022-10-17T06:49:40.762Z,13.74
2022-10-17T06:50:40.760Z,13.69
2022-10-17T06:51:40.749Z,13.77
2022-10-17T06:52:40.765Z,13.84
2022-10-17T06:53:40.754Z,14.24
2022-10-17T06:54:40.736Z,14.61
2022-10-17T06:55:40.729Z,14.99
2022-10-17T06:56:40.718Z,15.35
2022-10-17T06:57:40.717Z,15.54
2022-10-17T06:58:40.728Z,15.70
2022-10-17T06:59:40.715Z,15.93
2022-10-17T07:00:40.783Z,15.84
2022-10-17T07:01:43.216Z,15.94
2022-10-17T07:02:41.689Z,16.00
2022-10-17T07:03:40.693Z,16.01
2022-10-17T07:04:40.691Z,16.15
2022-10-17T07:05:40.661Z,16.30
2022-10-17T07:06:40.669Z,16.40
2022-10-17T07:07:43.146Z,17.04
2022-10-17T07:08:40.649Z,17.81
2022-10-17T07:09:40.654Z,18.44
2022-10-17T07:10:40.632Z,19.08
2022-10-17T07:11:40.637Z,19.69
2022-10-17T07:12:40.620Z,20.28
2022-10-17T07:13:40.625Z,20.79
2022-10-17T07:14:40.626Z,21.13
2022-10-17T07:15:40.605Z,21.44
2022-10-17T07:16:40.582Z,21.90
2022-10-17T07:17:40.597Z,22.32
2022-10-17T07:18:40.582Z,22.54
2022-10-17T07:19:40.642Z,22.87
2022-10-17T07:20:40.561Z,23.09
2022-10-17T07:21:40.556Z,23.14
2022-10-17T07:22:40.545Z,23.39
2022-10-17T07:23:40.534Z,23.89
2022-10-17T07:24:40.580Z,24.31
2022-10-17T07:25:40.540Z,24.92
2022-10-17T07:26:40.554Z,25.17
2022-10-17T07:27:40.513Z,25.67
2022-10-17T07:28:40.519Z,25.90
2022-10-17T07:29:40.513Z,26.11
2022-10-17T07:30:40.516Z,26.54
2022-10-17T07:31:40.484Z,26.37
2022-10-17T07:32:40.481Z,26.01
2022-10-17T07:33:40.529Z,25.69
2022-10-17T07:34:40.461Z,25.07
2022-10-17T07:35:40.463Z,24.45
2022-10-17T07:36:40.476Z,23.75
2022-10-17T07:37:40.475Z,22.99
2022-10-17T07:38:40.445Z,22.25
2022-10-17T07:39:40.445Z,21.36
2022-10-17T07:40:40.428Z,20.91
2022-10-17T07:41:40.461Z,20.66
2022-10-17T07:43:40.396Z,20.69
2022-10-17T07:44:40.393Z,21.05
2022-10-17T07:45:40.417Z,21.26
2022-10-17T07:46:40.385Z,21.50
2022-10-17T07:47:40.400Z,21.42
2022-10-17T07:48:40.376Z,21.56
2022-10-17T07:49:40.364Z,21.79
2022-10-17T07:50:40.353Z,22.13
2022-10-17T07:51:40.403Z,22.57
2022-10-17T07:52:40.369Z,22.57
2022-10-17T07:53:42.690Z,22.37
2022-10-17T07:54:40.334Z,22.28
2022-10-17T07:55:40.337Z,22.37
2022-10-17T07:56:40.328Z,22.22
2022-10-17T07:57:40.316Z,22.17
2022-10-17T07:58:40.329Z,22.17
2022-10-17T07:59:40.316Z,22.12
2022-10-17T08:00:40.422Z,22.17
2022-10-17T08:01:40.284Z,22.25
2022-10-17T08:02:41.283Z,22.22
2022-10-17T08:03:40.280Z,22.23
2022-10-17T08:04:40.299Z,22.31
2022-10-17T08:05:40.269Z,22.28
2022-10-17T08:06:40.260Z,22.31
2022-10-17T08:07:40.290Z,22.06
2022-10-17T08:08:40.239Z,21.90
2022-10-17T08:09:40.232Z,21.94
2022-10-17T08:10:40.281Z,22.04
2022-10-17T08:11:40.220Z,22.14
2022-10-17T08:12:40.225Z,22.39
2022-10-17T08:13:40.221Z,22.60
2022-10-17T08:14:40.219Z,22.77
2022-10-17T08:15:40.217Z,22.86
2022-10-17T08:16:40.191Z,22.96
2022-10-17T08:17:40.184Z,23.17
2022-10-17T08:18:40.196Z,23.50
2022-10-17T08:19:40.184Z,23.77
2022-10-17T08:20:40.172Z,24.02
2022-10-17T08:21:40.172Z,24.22
2022-10-17T08:22:40.161Z,24.37
2022-10-17T08:23:40.139Z,24.68
2022-10-17T08:24:40.145Z,24.95
2022-10-17T08:25:40.140Z,25.25
2022-10-17T08:26:43.385Z,25.38
2022-10-17T08:27:40.124Z,25.67
2022-10-17T08:28:40.235Z,25.89
2022-10-17T08:29:40.191Z,26.18
2022-10-17T08:30:40.117Z,26.44
2022-10-17T08:31:40.118Z,26.69
2022-10-17T08:32:40.091Z,26.77
2022-10-17T08:33:40.092Z,27.01
2022-10-17T08:34:40.083Z,27.21
2022-10-17T08:35:40.066Z,27.31
2022-10-17T08:36:40.087Z,27.48
2022-10-17T08:37:40.063Z,27.84
2022-10-17T08:38:43.150Z,27.99
2022-10-17T08:39:41.064Z,28.17
2022-10-17T08:40:40.104Z,28.33
2022-10-17T08:41:40.044Z,28.60
2022-10-17T08:42:40.027Z,28.73
2022-10-17T08:43:40.019Z,28.93
2022-10-17T08:44:40.036Z,29.04
2022-10-17T08:45:40.019Z,29.15
2022-10-17T08:46:40.008Z,29.10
2022-10-17T08:47:39.992Z,29.31
2022-10-17T08:48:44.089Z,29.62
2022-10-17T08:49:42.003Z,29.68
2022-10-17T08:50:39.987Z,29.72
2022-10-17T08:51:39.972Z,29.81
2022-10-17T08:52:39.977Z,29.84
2022-10-17T08:53:39.963Z,29.79
2022-10-17T08:54:39.975Z,29.96
2022-10-17T08:55:42.859Z,30.00
2022-10-17T08:56:48.535Z,29.92
2022-10-17T08:57:41.946Z,30.29
2022-10-17T08:58:39.934Z,30.53
2022-10-17T08:59:39.928Z,30.67
2022-10-17T09:00:39.916Z,30.81
2022-10-17T09:01:39.948Z,30.46
2022-10-17T09:02:39.933Z,30.72
2022-10-17T09:03:39.897Z,31.01
2022-10-17T09:04:39.888Z,30.99
2022-10-17T09:05:39.899Z,30.94
2022-10-17T09:06:39.877Z,30.80
2022-10-17T09:07:39.868Z,30.71
2022-10-17T09:08:39.864Z,30.34
2022-10-17T09:09:39.860Z,30.30
2022-10-17T09:10:39.875Z,30.52
2022-10-17T09:11:39.847Z,30.05
2022-10-17T09:12:39.837Z,29.94
2022-10-17T09:13:39.853Z,30.02
2022-10-17T09:14:40.801Z,29.90
2022-10-17T09:15:39.819Z,29.81
2022-10-17T09:16:39.811Z,29.79
2022-10-17T09:17:39.824Z,29.87
2022-10-17T09:18:39.824Z,29.41
2022-10-17T09:19:39.803Z,29.28
2022-10-17T09:20:39.804Z,29.52
2022-10-17T09:21:39.784Z,29.62
2022-10-17T09:22:39.783Z,29.19
2022-10-17T09:23:42.428Z,28.60
2022-10-17T09:24:39.769Z,28.17
2022-10-17T09:25:39.764Z,27.80
2022-10-17T09:26:39.767Z,26.94
2022-10-17T09:27:39.748Z,27.10
2022-10-17T09:28:39.782Z,27.28
2022-10-17T09:29:43.679Z,26.83
2022-10-17T09:30:45.216Z,27.04
2022-10-17T09:31:41.731Z,26.99
2022-10-17T09:32:39.731Z,27.04
2022-10-17T09:33:53.873Z,26.79
2022-10-17T09:34:41.731Z,26.64
2022-10-17T09:35:39.712Z,27.11
2022-10-17T09:36:39.695Z,27.54
2022-10-17T09:37:39.700Z,27.98
2022-10-17T09:38:39.697Z,28.26
2022-10-17T09:39:39.696Z,28.58
2022-10-17T09:40:39.691Z,28.97
2022-10-17T09:41:47.196Z,28.96
2022-10-17T09:42:41.659Z,28.51
2022-10-17T09:43:39.671Z,28.07
2022-10-17T09:44:39.663Z,28.26
2022-10-17T09:45:39.650Z,28.65
2022-10-17T09:46:39.647Z,28.44
2022-10-17T09:47:39.637Z,28.43
2022-10-17T09:48:39.631Z,28.16
2022-10-17T09:49:39.644Z,28.01
2022-10-17T09:50:39.635Z,27.74
2022-10-17T09:51:39.616Z,27.74
2022-10-17T09:52:39.616Z,27.53
2022-10-17T09:53:39.603Z,27.54
2022-10-17T09:54:39.592Z,26.87
2022-10-17T09:55:39.616Z,26.18
2022-10-17T09:56:39.587Z,25.86
2022-10-17T09:57:39.579Z,26.01
2022-10-17T09:58:39.571Z,26.43
2022-10-17T09:59:39.572Z,26.94
2022-10-17T10:00:39.611Z,27.02
2022-10-17T10:01:39.572Z,26.95
2022-10-17T10:02:39.551Z,26.89
2022-10-17T10:03:39.536Z,26.84
2022-10-17T10:04:53.083Z,26.96
2022-10-17T10:05:41.533Z,26.95
2022-10-17T10:06:39.528Z,26.79
2022-10-17T10:07:39.534Z,26.92
2022-10-17T10:08:39.532Z,26.55
2022-10-17T10:09:40.261Z,26.39
2022-10-17T10:10:39.509Z,26.83
2022-10-17T10:11:39.514Z,27.02
2022-10-17T10:12:40.298Z,27.29
2022-10-17T10:13:39.508Z,27.24
2022-10-17T10:14:39.487Z,26.84
2022-10-17T10:15:39.476Z,26.96
2022-10-17T10:16:39.475Z,26.83
2022-10-17T10:17:39.468Z,26.98
2022-10-17T10:18:39.483Z,26.68
2022-10-17T10:19:39.475Z,26.37
2022-10-17T10:20:39.529Z,26.04
2022-10-17T10:21:39.447Z,26.01
2022-10-17T10:22:39.444Z,26.04
2022-10-17T10:23:39.463Z,26.02
2022-10-17T10:24:39.427Z,26.25
2022-10-17T10:25:39.454Z,26.42
2022-10-17T10:26:39.421Z,26.31
2022-10-17T10:27:39.430Z,26.04
2022-10-17T10:28:39.442Z,25.74
2022-10-17T10:29:39.399Z,25.37
2022-10-17T10:30:40.105Z,25.30
2022-10-17T10:31:39.370Z,25.31
2022-10-17T10:32:39.381Z,25.56
2022-10-17T10:33:41.581Z,25.75
2022-10-17T10:34:40.370Z,26.04
2022-10-17T10:35:39.362Z,26.21
2022-10-17T10:36:39.362Z,26.29
2022-10-17T10:37:39.343Z,26.81
2022-10-17T10:38:39.346Z,27.09
2022-10-17T10:39:40.389Z,26.72
2022-10-17T10:40:39.332Z,26.39
2022-10-17T10:41:39.336Z,26.22
2022-10-17T10:42:39.327Z,25.77
2022-10-17T10:43:39.311Z,25.74
2022-10-17T10:44:39.335Z,25.91
2022-10-17T10:45:48.552Z,26.35
2022-10-17T10:46:41.289Z,26.18
2022-10-17T10:47:39.292Z,26.62
2022-10-17T10:48:39.280Z,26.92
2022-10-17T10:49:39.291Z,26.98
2022-10-17T10:50:44.400Z,27.28
2022-10-17T10:51:41.269Z,26.95
2022-10-17T10:52:39.257Z,27.06
2022-10-17T10:53:39.251Z,26.92
2022-10-17T10:55:40.258Z,26.64
2022-10-17T10:56:39.239Z,26.61
2022-10-17T10:57:39.236Z,26.49
2022-10-17T10:58:41.851Z,26.28
2022-10-17T10:59:39.219Z,26.06
2022-10-17T11:00:39.335Z,26.05
2022-10-17T11:01:39.209Z,25.79
2022-10-17T11:02:39.204Z,25.87
2022-10-17T11:04:39.219Z,26.94
2022-10-17T11:05:39.188Z,27.17
2022-10-17T11:06:39.164Z,27.91
2022-10-17T11:07:39.170Z,28.23
2022-10-17T11:08:39.158Z,27.99
2022-10-17T11:09:39.160Z,27.42
2022-10-17T11:10:39.158Z,27.31
2022-10-17T11:11:39.189Z,26.55
2022-10-17T11:12:39.203Z,25.94
2022-10-17T11:13:39.147Z,25.71
2022-10-17T11:14:39.123Z,25.84
2022-10-17T11:15:39.127Z,25.87
2022-10-17T11:16:39.139Z,26.61
2022-10-17T11:17:39.102Z,27.20
2022-10-17T11:18:39.102Z,27.24
2022-10-17T11:19:39.098Z,27.57
2022-10-17T11:20:39.094Z,27.70
2022-10-17T11:21:39.090Z,28.07
2022-10-17T11:22:39.555Z,27.95
2022-10-17T11:23:39.078Z,27.70
2022-10-17T11:24:39.082Z,27.77
2022-10-17T11:25:39.072Z,27.67
2022-10-17T11:26:39.062Z,27.21
2022-10-17T11:27:39.073Z,26.61
2022-10-17T11:28:39.099Z,26.72
2022-10-17T11:29:39.041Z,26.44
2022-10-17T11:30:39.099Z,26.28
2022-10-17T11:31:39.151Z,26.46
2022-10-17T11:32:39.048Z,26.47
2022-10-17T11:33:39.028Z,26.39
2022-10-17T11:34:39.023Z,26.17
2022-10-17T11:35:39.038Z,25.90
2022-10-17T11:36:39.006Z,26.02
2022-10-17T11:37:40.820Z,25.68
2022-10-17T11:38:38.988Z,25.49
2022-10-17T11:39:39.044Z,25.61
2022-10-17T11:40:38.986Z,25.80
2022-10-17T11:41:38.970Z,25.87
2022-10-17T11:42:39.005Z,25.50
2022-10-17T11:43:38.964Z,25.12
2022-10-17T11:44:38.945Z,24.88
2022-10-17T11:45:38.960Z,24.60
2022-10-17T11:46:38.950Z,24.52
2022-10-17T11:47:38.926Z,24.98
2022-10-17T11:48:38.938Z,25.74
2022-10-17T11:49:41.020Z,26.29
2022-10-17T11:52:55.970Z,27.01
2022-10-17T11:53:40.896Z,26.79
2022-10-17T11:54:38.899Z,27.28
2022-10-17T11:55:38.882Z,27.69
2022-10-17T11:56:42.670Z,27.86
2022-10-17T11:57:39.879Z,27.35
2022-10-17T11:58:38.878Z,27.57
2022-10-17T11:59:38.858Z,27.26
2022-10-17T12:00:40.841Z,27.59
2022-10-17T12:01:38.846Z,27.41
2022-10-17T12:02:39.220Z,26.95
2022-10-17T12:03:38.850Z,26.47
2022-10-17T12:04:39.338Z,26.04
2022-10-17T12:05:38.822Z,25.83
2022-10-17T12:06:38.818Z,26.17
2022-10-17T12:07:38.866Z,26.39
2022-10-17T12:08:38.845Z,26.59
2022-10-17T12:09:38.802Z,26.54
2022-10-17T12:10:38.870Z,26.96
2022-10-17T12:11:38.794Z,27.28
2022-10-17T12:12:38.781Z,27.06
2022-10-17T12:13:39.783Z,27.26
2022-10-17T12:14:38.782Z,26.92
2022-10-17T12:15:38.789Z,26.40
2022-10-17T12:16:38.761Z,26.28
2022-10-17T12:17:38.749Z,26.04
2022-10-17T12:18:38.746Z,25.74
2022-10-17T12:19:38.763Z,26.01
2022-10-17T12:20:38.748Z,25.99
2022-10-17T12:21:42.729Z,26.17
2022-10-17T12:22:39.712Z,26.36
2022-10-17T12:23:38.706Z,26.24
2022-10-17T12:24:38.768Z,25.87
2022-10-17T12:25:38.717Z,25.74
2022-10-17T12:26:38.689Z,25.49
2022-10-17T12:27:38.665Z,25.39
2022-10-17T12:28:39.919Z,25.42
2022-10-17T12:29:38.670Z,25.53
2022-10-17T12:30:38.661Z,25.57
2022-10-17T12:31:38.647Z,25.64
2022-10-17T12:33:00.308Z,25.64
2022-10-17T12:33:40.654Z,25.69
2022-10-17T12:34:38.658Z,25.27
2022-10-17T12:35:38.719Z,25.19
2022-10-17T12:36:38.619Z,25.46
2022-10-17T12:37:38.623Z,25.49
2022-10-17T12:38:38.618Z,25.56
2022-10-17T12:39:38.598Z,25.86
2022-10-17T12:40:38.591Z,26.46
2022-10-17T12:41:38.612Z,26.69
2022-10-17T12:42:38.604Z,26.77
2022-10-17T12:43:42.673Z,27.09
2022-10-17T12:44:40.563Z,27.32
2022-10-17T12:45:38.563Z,27.42
2022-10-17T12:46:38.563Z,27.39
2022-10-17T12:47:38.547Z,27.46
2022-10-17T12:48:38.551Z,27.38
2022-10-17T12:49:38.559Z,27.32
2022-10-17T12:50:38.527Z,27.21
2022-10-17T12:51:38.528Z,27.20
2022-10-17T12:52:38.515Z,27.26
2022-10-17T12:53:38.511Z,27.19
2022-10-17T12:54:47.216Z,27.17
2022-10-17T12:55:39.495Z,26.94
2022-10-17T12:56:38.487Z,27.11
2022-10-17T12:57:38.516Z,27.42
2022-10-17T12:58:39.158Z,27.31
2022-10-17T12:59:38.463Z,27.04